Julian, California
Current Conditions -  °F | °C
As of 4:53 PM on Monday 26 Jan 2015 (Local Time) from KRNM Reporting Station
Light Rain Light Rain  
Wind Chill: 53°   Ceiling: 7000
Heat Index: 53°   Visibility: 10mi
Dew Point: 51°   Wind: 10mph
Humidity: 93%   Direction: 290°WNW
Pressure: 30.04"   Gusts: NA
Location:  33.08°N, 116.6°W
Report Text: KRNM 270053Z 29009KT 10SM -RA BKN070 OVC080 12/11 A3004 RMK AO2 RAB36 SLP163 P0000 T01170106
Loading
Personal Weather Stations






























Interactive Weather Map New forecast layout! Learn more

10-Day Weather Forecast

Advertisements
Track Severe Weather on mobile